createdAt,value
2022-09-06T00:03:27.537Z,12.48
2022-09-06T00:08:51.285Z,13.85
2022-09-06T00:14:16.582Z,14.13
2022-09-06T00:19:21.996Z,8.75
2022-09-06T00:24:28.599Z,7.05
2022-09-06T00:29:35.600Z,11.15
2022-09-06T00:34:40.904Z,6.10
2022-09-06T00:39:46.424Z,9.82
2022-09-06T00:44:53.248Z,9.65
2022-09-06T00:50:00.181Z,6.18
2022-09-06T00:55:05.778Z,5.95
2022-09-06T01:00:13.615Z,8.40
2022-09-06T01:05:19.526Z,6.60
2022-09-06T01:10:42.396Z,6.82
2022-09-06T01:15:55.069Z,6.45
2022-09-06T01:21:09.282Z,6.75
2022-09-06T01:26:37.695Z,5.43
2022-09-06T01:31:47.534Z,9.60
2022-09-06T01:37:09.483Z,4.68
2022-09-06T01:42:18.412Z,6.97
2022-09-06T01:47:35.704Z,7.00
2022-09-06T01:52:52.337Z,9.57
2022-09-06T01:58:10.184Z,4.78
2022-09-06T02:03:24.807Z,6.10
2022-09-06T02:08:34.151Z,6.25
2022-09-06T02:18:51.403Z,5.90
2022-09-06T02:23:57.646Z,5.90
2022-09-06T02:29:03.468Z,4.30
2022-09-06T02:34:11.451Z,4.32
2022-09-06T02:39:17.127Z,4.65
2022-09-06T02:44:23.769Z,5.22
2022-09-06T02:49:30.795Z,6.75
2022-09-06T02:54:36.123Z,3.45
2022-09-06T02:59:41.523Z,2.90
2022-09-06T03:04:48.347Z,5.88
2022-09-06T03:09:53.701Z,7.28
2022-09-06T03:14:59.141Z,6.22
2022-09-06T03:20:06.596Z,3.22
2022-09-06T03:25:12.573Z,5.57
2022-09-06T03:30:18.670Z,7.28
2022-09-06T03:35:25.693Z,5.63
2022-09-06T03:40:32.158Z,4.38
2022-09-06T03:45:38.611Z,5.13
2022-09-06T03:50:47.849Z,4.22
2022-09-06T04:01:04.676Z,4.65
2022-09-06T04:06:12.365Z,6.20
2022-09-06T04:11:17.757Z,4.68
2022-09-06T04:16:23.092Z,3.70
2022-09-06T04:21:29.941Z,7.80
2022-09-06T04:26:35.431Z,4.07
2022-09-06T04:31:41.125Z,4.40
2022-09-06T04:36:48.612Z,7.25
2022-09-06T04:41:53.891Z,5.80
2022-09-06T04:47:09.507Z,7.88
2022-09-06T04:52:16.748Z,6.03
2022-09-06T04:57:22.165Z,6.90
2022-09-06T05:02:27.688Z,2.92
2022-09-06T05:07:34.579Z,6.55
2022-09-06T05:12:44.187Z,7.32
2022-09-06T05:17:50.176Z,7.22
2022-09-06T05:22:57.058Z,6.43
2022-09-06T05:28:02.746Z,7.93
2022-09-06T05:33:08.597Z,3.92
2022-09-06T05:38:15.514Z,5.80
2022-09-06T05:43:20.982Z,4.55
2022-09-06T05:48:26.484Z,4.97
2022-09-06T05:53:38.737Z,5.45
2022-09-06T05:58:44.166Z,3.08
2022-09-06T06:03:54.451Z,3.75
2022-09-06T06:09:01.806Z,5.40
2022-09-06T06:14:07.371Z,6.40
2022-09-06T06:19:12.815Z,3.92
2022-09-06T06:24:20.166Z,7.70
2022-09-06T06:29:25.692Z,13.27
2022-09-06T06:34:31.419Z,6.88
2022-09-06T06:39:38.988Z,5.20
2022-09-06T06:44:44.499Z,6.72
2022-09-06T06:49:50.722Z,6.05
2022-09-06T06:54:57.479Z,4.97
2022-09-06T07:00:05.134Z,4.53
2022-09-06T07:10:38.091Z,3.38
2022-09-06T07:15:43.407Z,5.80
2022-09-06T07:26:18.069Z,11.80
2022-09-06T07:36:49.745Z,4.63
2022-09-06T07:41:56.732Z,4.25
2022-09-06T07:57:55.825Z,5.03
2022-09-06T08:03:01.277Z,4.97
2022-09-06T08:13:33.750Z,7.68
2022-09-06T08:18:40.224Z,3.85
2022-09-06T08:23:47.940Z,3.00
2022-09-06T08:28:57.761Z,2.42
2022-09-06T08:34:03.360Z,13.70
2022-09-06T08:39:10.472Z,7.45
2022-09-06T08:49:46.935Z,1.83
2022-09-06T08:55:00.649Z,0.80
2022-09-06T09:00:11.438Z,6.63
2022-09-06T09:05:25.983Z,2.80
2022-09-06T09:10:32.882Z,7.43
2022-09-06T09:15:44.607Z,5.35
2022-09-06T09:20:50.267Z,1.05
2022-09-06T09:25:58.635Z,2.25
2022-09-06T09:31:07.464Z,1.75
2022-09-06T09:41:28.874Z,2.33
2022-09-06T09:46:37.388Z,4.13
2022-09-06T09:51:46.052Z,2.55
2022-09-06T09:56:53.207Z,2.30
2022-09-06T10:02:01.929Z,2.47
2022-09-06T10:07:13.747Z,5.70
2022-09-06T10:12:21.662Z,1.08
2022-09-06T10:17:39.657Z,2.30
2022-09-06T10:22:52.237Z,2.40
2022-09-06T10:28:36.688Z,1.58
2022-09-06T10:34:01.111Z,0.82
2022-09-06T10:39:10.820Z,3.58
2022-09-06T10:44:25.677Z,2.45
2022-09-06T10:49:34.115Z,3.25
2022-09-06T10:54:42.753Z,1.17
2022-09-06T10:59:52.164Z,2.78
2022-09-06T11:10:30.987Z,1.30
2022-09-06T11:15:42.602Z,5.22
2022-09-06T11:20:55.482Z,1.38
2022-09-06T11:26:24.347Z,1.38
2022-09-06T11:36:58.919Z,2.15
2022-09-06T11:42:05.717Z,2.35
2022-09-06T11:47:11.779Z,0.90
2022-09-06T11:53:00.113Z,1.60
2022-09-06T11:58:10.991Z,2.53
2022-09-06T12:04:06.177Z,0.60
2022-09-06T12:09:34.290Z,2.95
2022-09-06T12:14:42.701Z,0.80
2022-09-06T12:19:50.282Z,4.10
2022-09-06T12:24:59.936Z,1.20
2022-09-06T12:30:09.235Z,3.17
2022-09-06T12:40:48.204Z,2.35
2022-09-06T12:45:55.100Z,1.65
2022-09-06T12:51:04.465Z,0.82
2022-09-06T12:56:12.862Z,5.35
2022-09-06T13:01:24.209Z,0.80
2022-09-06T13:06:30.287Z,2.58
2022-09-06T13:11:39.237Z,0.75
2022-09-06T13:21:53.148Z,2.50
2022-09-06T13:26:58.614Z,1.77
2022-09-06T13:32:09.644Z,1.42
2022-09-06T13:37:15.872Z,2.28
2022-09-06T13:42:29.187Z,2.13
2022-09-06T13:47:35.982Z,0.80
2022-09-06T13:52:41.854Z,0.98
2022-09-06T13:57:47.719Z,1.23
2022-09-06T14:02:57.010Z,1.10
2022-09-06T14:08:02.515Z,0.65
2022-09-06T14:13:07.836Z,5.28
2022-09-06T14:18:14.993Z,1.00
2022-09-06T14:23:20.372Z,0.35
2022-09-06T14:28:25.895Z,3.45
2022-09-06T14:33:33.314Z,1.15
2022-09-06T14:38:40.341Z,2.65
2022-09-06T14:43:48.917Z,0.57
2022-09-06T14:49:00.913Z,4.85
2022-09-06T14:54:08.231Z,1.83
2022-09-06T14:59:13.947Z,5.28
2022-09-06T15:04:20.904Z,2.58
2022-09-06T15:09:26.439Z,0.50
2022-09-06T15:14:31.915Z,2.45
2022-09-06T15:19:39.002Z,1.65
2022-09-06T15:24:44.657Z,1.48
2022-09-06T15:29:50.104Z,2.10
2022-09-06T15:35:00.229Z,2.58
2022-09-06T15:40:09.800Z,3.22
2022-09-06T15:45:15.307Z,4.18
2022-09-06T15:50:40.558Z,1.17
2022-09-06T15:56:01.002Z,2.08
2022-09-06T16:01:08.860Z,1.38
2022-09-06T16:11:31.003Z,3.40
2022-09-06T16:16:37.149Z,1.45
2022-09-06T16:21:45.025Z,4.35
2022-09-06T16:26:50.427Z,1.77
2022-09-06T16:32:00.012Z,2.15
2022-09-06T16:37:08.133Z,2.58
2022-09-06T16:42:15.211Z,1.88
2022-09-06T16:47:20.802Z,2.33
2022-09-06T16:52:28.058Z,2.20
2022-09-06T16:57:33.710Z,4.55
2022-09-06T17:02:42.651Z,2.35
2022-09-06T17:07:52.536Z,3.78
2022-09-06T17:12:57.917Z,10.65
2022-09-06T17:18:03.659Z,4.10
2022-09-06T17:23:10.685Z,4.03
2022-09-06T17:28:16.666Z,3.33
2022-09-06T17:33:23.267Z,4.20
2022-09-06T17:38:31.753Z,13.23
2022-09-06T17:43:39.285Z,9.27
2022-09-06T17:48:45.240Z,14.25
2022-09-06T17:53:52.862Z,21.90
2022-09-06T17:59:00.111Z,13.48
2022-09-06T18:04:06.469Z,17.15
2022-09-06T18:09:17.394Z,17.38
2022-09-06T18:14:23.725Z,12.48
2022-09-06T18:19:29.478Z,21.70
2022-09-06T18:24:36.900Z,21.67
2022-09-06T18:29:42.965Z,26.05
2022-09-06T18:34:49.006Z,45.22
2022-09-06T18:39:56.641Z,25.48
2022-09-06T18:45:02.752Z,35.97
2022-09-06T18:50:10.426Z,34.72
2022-09-06T18:55:17.946Z,28.55
2022-09-06T19:00:23.660Z,31.23
2022-09-06T19:05:30.720Z,35.65
2022-09-06T19:10:38.245Z,28.70
2022-09-06T19:15:45.023Z,28.92
2022-09-06T19:20:59.467Z,35.60
2022-09-06T19:26:08.537Z,38.13
2022-09-06T19:31:16.483Z,32.88
2022-09-06T19:36:23.505Z,30.03
2022-09-06T19:41:31.799Z,28.73
2022-09-06T19:46:40.942Z,27.13
2022-09-06T19:51:49.398Z,31.45
2022-09-06T19:56:56.824Z,34.13
2022-09-06T20:02:02.796Z,26.45
2022-09-06T20:07:11.222Z,25.90
2022-09-06T20:12:19.497Z,26.30
2022-09-06T20:17:34.331Z,25.48
2022-09-06T20:22:40.444Z,25.05
2022-09-06T20:27:47.828Z,21.77
2022-09-06T20:32:53.564Z,20.80
2022-09-06T20:37:59.678Z,22.70
2022-09-06T20:43:08.658Z,21.63
2022-09-06T20:48:15.497Z,20.43
2022-09-06T20:53:21.990Z,22.23
2022-09-06T20:58:29.663Z,19.58
2022-09-06T21:08:43.596Z,19.13
2022-09-06T21:13:52.509Z,22.23
2022-09-06T21:18:59.780Z,22.95
2022-09-06T21:24:06.975Z,19.63
2022-09-06T21:29:15.096Z,17.48
2022-09-06T21:34:21.722Z,15.70
2022-09-06T21:39:29.295Z,14.18
2022-09-06T21:44:37.956Z,14.85
2022-09-06T21:49:43.641Z,19.33
2022-09-06T21:54:49.723Z,17.08
2022-09-06T21:59:57.025Z,17.05
2022-09-06T22:05:06.788Z,15.48
2022-09-06T22:10:12.835Z,14.68
2022-09-06T22:15:22.501Z,16.48
2022-09-06T22:20:30.449Z,20.15
2022-09-06T22:25:36.609Z,17.55
2022-09-06T22:30:45.477Z,15.43
2022-09-06T22:35:52.011Z,12.67
2022-09-06T22:41:00.006Z,17.58
2022-09-06T22:46:08.956Z,14.02
2022-09-06T22:51:14.514Z,10.73
2022-09-06T22:56:20.194Z,12.25
2022-09-06T23:01:28.037Z,13.57
2022-09-06T23:06:33.395Z,11.15
2022-09-06T23:11:40.761Z,13.73
2022-09-06T23:16:47.560Z,15.65
2022-09-06T23:21:53.703Z,11.10
2022-09-06T23:27:00.689Z,15.27
2022-09-06T23:32:08.057Z,14.90
2022-09-06T23:37:13.662Z,15.45
2022-09-06T23:42:19.243Z,16.48
2022-09-06T23:47:26.585Z,11.38
2022-09-06T23:52:32.195Z,19.17
2022-09-06T23:57:37.650Z,21.67
